createdAt,value
2019-03-31T00:01:11.093Z,12.90
2019-03-31T00:05:17.386Z,12.80
2019-03-31T00:09:23.746Z,12.70
2019-03-31T00:13:31.369Z,12.60
2019-03-31T00:17:38.050Z,12.50
2019-03-31T00:21:47.157Z,12.40
2019-03-31T00:25:56.173Z,12.40
2019-03-31T00:30:02.757Z,12.40
2019-03-31T00:34:09.069Z,12.20
2019-03-31T00:38:17.854Z,12.20
2019-03-31T00:42:27.145Z,12.10
2019-03-31T00:46:33.398Z,12.00
2019-03-31T00:50:42.568Z,11.90
2019-03-31T00:54:55.639Z,11.90
2019-03-31T00:59:31.482Z,11.80
2019-03-31T01:08:49.064Z,11.60
2019-03-31T01:12:58.410Z,11.60
2019-03-31T01:17:06.270Z,11.50
2019-03-31T01:21:12.897Z,11.40
2019-03-31T01:25:20.570Z,11.40
2019-03-31T01:29:28.349Z,11.30
2019-03-31T01:33:37.047Z,11.20
2019-03-31T01:37:43.307Z,11.20
2019-03-31T01:41:49.629Z,11.10
2019-03-31T01:45:55.911Z,11.00
2019-03-31T01:50:02.421Z,11.00
2019-03-31T01:54:08.824Z,10.90
2019-03-31T01:58:15.098Z,10.90
2019-03-31T02:02:28.407Z,10.80
2019-03-31T02:06:36.046Z,10.80
2019-03-31T02:10:43.389Z,10.70
2019-03-31T02:14:49.621Z,10.60
2019-03-31T02:18:56.025Z,10.60
2019-03-31T02:23:02.357Z,10.50
2019-03-31T02:27:09.594Z,10.50
2019-03-31T02:31:16.084Z,10.40
2019-03-31T02:35:22.495Z,10.30
2019-03-31T02:39:28.749Z,10.30
2019-03-31T02:43:35.047Z,10.20
2019-03-31T02:47:41.313Z,10.20
2019-03-31T02:51:47.545Z,10.20
2019-03-31T02:55:56.003Z,10.10
2019-03-31T03:00:05.687Z,10.00
2019-03-31T03:04:14.540Z,9.90
2019-03-31T03:08:21.229Z,9.90
2019-03-31T03:12:27.648Z,9.90
2019-03-31T03:16:35.456Z,9.80
2019-03-31T03:20:41.748Z,9.80
2019-03-31T03:24:49.003Z,9.70
2019-03-31T03:28:55.514Z,9.70
2019-03-31T03:33:15.108Z,9.60
2019-03-31T03:37:09.554Z,9.60
2019-03-31T03:41:19.373Z,9.50
2019-03-31T03:45:27.093Z,9.40
2019-03-31T03:49:33.455Z,9.40
2019-03-31T03:53:41.234Z,9.40
2019-03-31T03:57:49.067Z,9.30
2019-03-31T04:01:55.299Z,9.30
2019-03-31T04:06:02.733Z,9.20
2019-03-31T04:10:30.841Z,9.20
2019-03-31T04:14:37.438Z,9.10
2019-03-31T04:18:43.812Z,9.10
2019-03-31T04:22:50.017Z,9.00
2019-03-31T04:26:56.281Z,9.00
2019-03-31T04:31:02.641Z,8.90
2019-03-31T04:35:08.929Z,8.90
2019-03-31T04:39:16.063Z,8.80
2019-03-31T04:43:22.709Z,8.80
2019-03-31T04:47:29.007Z,8.70
2019-03-31T04:51:35.397Z,8.70
2019-03-31T04:55:42.545Z,8.70
2019-03-31T04:59:49.964Z,8.60
2019-03-31T05:04:04.587Z,8.60
2019-03-31T05:08:04.638Z,8.50
2019-03-31T05:12:12.064Z,8.50
2019-03-31T05:16:18.337Z,8.40
2019-03-31T05:20:24.894Z,8.40
2019-03-31T05:24:31.136Z,8.30
2019-03-31T05:28:37.579Z,8.30
2019-03-31T05:32:43.791Z,8.30
2019-03-31T05:36:51.179Z,8.30
2019-03-31T05:40:57.433Z,8.20
2019-03-31T05:45:03.685Z,8.20
2019-03-31T05:49:10.190Z,8.20
2019-03-31T05:53:16.698Z,8.10
2019-03-31T05:57:22.899Z,8.10
2019-03-31T06:01:29.245Z,8.10
2019-03-31T06:05:35.786Z,8.10
2019-03-31T06:09:42.055Z,8.10
2019-03-31T06:13:48.283Z,8.00
2019-03-31T06:17:54.439Z,8.00
2019-03-31T06:22:00.676Z,8.00
2019-03-31T06:26:06.960Z,8.00
2019-03-31T06:30:13.463Z,8.00
2019-03-31T06:34:19.840Z,8.00
2019-03-31T06:38:26.281Z,8.10
2019-03-31T06:43:42.677Z,8.10
2019-03-31T06:47:49.039Z,8.20
2019-03-31T06:51:55.267Z,8.20
2019-03-31T06:56:01.716Z,8.30
2019-03-31T07:00:08.836Z,8.40
2019-03-31T07:04:15.172Z,8.50
2019-03-31T07:08:21.397Z,8.60
2019-03-31T07:12:27.584Z,8.70
2019-03-31T07:16:34.840Z,8.80
2019-03-31T07:20:41.232Z,8.90
2019-03-31T07:24:47.395Z,9.00
2019-03-31T07:28:55.386Z,9.10
2019-03-31T07:33:01.673Z,9.20
2019-03-31T07:37:07.935Z,9.30
2019-03-31T07:41:14.354Z,9.50
2019-03-31T07:45:21.958Z,9.50
2019-03-31T07:49:28.181Z,9.70
2019-03-31T07:53:34.417Z,9.80
2019-03-31T07:57:41.032Z,10.00
2019-03-31T08:01:47.279Z,10.20
2019-03-31T08:05:53.562Z,10.30
2019-03-31T08:10:00.443Z,10.50
2019-03-31T08:14:08.430Z,10.70
2019-03-31T08:18:14.705Z,10.80
2019-03-31T08:22:20.871Z,11.10
2019-03-31T08:26:27.100Z,11.40
2019-03-31T08:30:33.456Z,11.50
2019-03-31T08:34:39.726Z,11.60
2019-03-31T08:38:45.985Z,11.80
2019-03-31T08:42:52.242Z,12.00
2019-03-31T08:46:58.679Z,12.20
2019-03-31T08:51:05.055Z,12.30
2019-03-31T08:55:12.596Z,12.50
2019-03-31T08:59:18.884Z,12.60
2019-03-31T09:03:25.103Z,12.80
2019-03-31T09:07:31.356Z,13.00
2019-03-31T09:11:37.611Z,13.20
2019-03-31T09:15:43.846Z,13.40
2019-03-31T09:19:50.152Z,13.60
2019-03-31T09:23:56.324Z,13.70
2019-03-31T09:28:02.666Z,13.90
2019-03-31T09:32:10.417Z,14.10
2019-03-31T09:36:17.027Z,14.30
2019-03-31T09:40:23.406Z,14.50
2019-03-31T09:44:30.400Z,14.70
2019-03-31T09:48:37.181Z,14.90
2019-03-31T09:52:43.380Z,15.10
2019-03-31T09:56:50.114Z,15.30
2019-03-31T10:00:56.296Z,15.40
2019-03-31T10:05:03.317Z,15.60
2019-03-31T10:09:09.621Z,15.80
2019-03-31T10:13:16.226Z,16.00
2019-03-31T10:17:22.382Z,16.20
2019-03-31T10:21:28.708Z,16.30
2019-03-31T10:25:34.963Z,16.50
2019-03-31T10:29:41.160Z,16.70
2019-03-31T10:33:47.410Z,16.90
2019-03-31T10:37:54.218Z,17.00
2019-03-31T10:42:01.662Z,17.20
2019-03-31T10:46:09.234Z,17.40
2019-03-31T10:50:15.466Z,17.50
2019-03-31T10:54:21.732Z,17.70
2019-03-31T10:58:29.464Z,17.90
2019-03-31T11:02:35.677Z,18.10
2019-03-31T11:06:41.925Z,18.20
2019-03-31T11:10:48.266Z,18.40
2019-03-31T11:14:54.491Z,18.50
2019-03-31T11:19:00.725Z,18.70
2019-03-31T11:23:27.459Z,18.80
2019-03-31T11:27:34.071Z,19.00
2019-03-31T11:31:40.221Z,19.20
2019-03-31T11:35:46.447Z,19.30
2019-03-31T11:39:54.183Z,19.50
2019-03-31T11:44:00.969Z,19.60
2019-03-31T11:48:07.476Z,19.80
2019-03-31T11:52:13.786Z,19.90
2019-03-31T11:56:20.094Z,20.10
2019-03-31T12:00:28.280Z,20.20
2019-03-31T12:04:34.727Z,20.30
2019-03-31T12:08:40.958Z,20.50
2019-03-31T12:12:47.296Z,20.60
2019-03-31T12:16:53.544Z,20.80
2019-03-31T12:20:59.854Z,20.90
2019-03-31T12:25:07.152Z,21.00
2019-03-31T12:29:13.612Z,21.20
2019-03-31T12:33:21.613Z,21.30
2019-03-31T12:37:41.387Z,21.40
2019-03-31T12:41:35.848Z,21.60
2019-03-31T12:45:43.394Z,21.70
2019-03-31T12:49:50.750Z,21.80
2019-03-31T12:53:57.233Z,22.00
2019-03-31T12:58:03.437Z,22.00
2019-03-31T13:02:09.796Z,22.20
2019-03-31T13:06:16.120Z,22.30
2019-03-31T13:10:22.370Z,22.50
2019-03-31T13:14:28.706Z,22.50
2019-03-31T13:18:35.323Z,22.60
2019-03-31T13:22:45.640Z,22.80
2019-03-31T13:26:50.121Z,23.00
2019-03-31T13:30:56.361Z,23.00
2019-03-31T13:35:03.684Z,23.10
2019-03-31T13:39:10.023Z,23.20
2019-03-31T13:43:16.361Z,23.30
2019-03-31T13:47:22.749Z,23.40
2019-03-31T13:51:29.081Z,23.50
2019-03-31T13:55:35.430Z,23.60
2019-03-31T13:59:41.704Z,23.60
2019-03-31T14:03:47.948Z,23.70
2019-03-31T14:07:54.365Z,23.70
2019-03-31T14:12:02.436Z,23.90
2019-03-31T14:16:08.743Z,24.00
2019-03-31T14:20:15.143Z,24.10
2019-03-31T14:24:21.450Z,24.20
2019-03-31T14:28:27.712Z,24.20
2019-03-31T14:32:33.963Z,24.30
2019-03-31T14:36:40.229Z,24.30
2019-03-31T14:40:46.411Z,24.30
2019-03-31T14:44:52.629Z,24.40
2019-03-31T14:48:58.819Z,24.50
2019-03-31T14:53:05.861Z,24.60
2019-03-31T14:57:12.084Z,24.60
2019-03-31T15:01:21.176Z,24.60
2019-03-31T15:05:26.123Z,24.70
2019-03-31T15:09:32.369Z,24.70
2019-03-31T15:13:39.010Z,24.70
2019-03-31T15:17:45.631Z,24.80
2019-03-31T15:21:51.854Z,24.90
2019-03-31T15:25:58.120Z,24.80
2019-03-31T15:30:04.556Z,24.80
2019-03-31T15:34:11.268Z,24.80
2019-03-31T15:38:17.494Z,24.80
2019-03-31T15:42:23.818Z,24.80
2019-03-31T15:46:31.965Z,24.80
2019-03-31T15:50:38.771Z,24.80
2019-03-31T15:54:45.046Z,24.90
2019-03-31T15:58:51.263Z,24.80
2019-03-31T16:02:57.740Z,24.80
2019-03-31T16:07:04.630Z,24.80
2019-03-31T16:11:11.464Z,24.80
2019-03-31T16:15:17.630Z,24.80
2019-03-31T16:19:23.378Z,24.60
2019-03-31T16:23:30.528Z,24.60
2019-03-31T16:27:36.176Z,24.60
2019-03-31T16:31:42.611Z,24.60
2019-03-31T16:35:50.739Z,24.50
2019-03-31T16:39:57.470Z,24.50
2019-03-31T16:44:03.360Z,24.40
2019-03-31T16:48:08.988Z,24.30
2019-03-31T16:52:15.982Z,24.30
2019-03-31T16:56:23.280Z,24.20
2019-03-31T17:00:30.108Z,24.20
2019-03-31T17:04:36.949Z,24.10
2019-03-31T17:08:42.722Z,24.00
2019-03-31T17:12:51.833Z,24.00
2019-03-31T17:17:00.066Z,23.90
2019-03-31T17:21:07.104Z,23.80
2019-03-31T17:25:16.987Z,23.70
2019-03-31T17:29:23.244Z,23.60
2019-03-31T17:33:30.507Z,23.50
2019-03-31T17:37:36.777Z,23.40
2019-03-31T17:41:44.594Z,23.10
2019-03-31T17:45:52.583Z,22.70
2019-03-31T17:49:58.856Z,22.30
2019-03-31T17:54:06.639Z,22.20
2019-03-31T17:58:12.642Z,22.20
2019-03-31T18:02:20.174Z,22.20
2019-03-31T18:06:26.159Z,22.20
2019-03-31T18:10:33.808Z,22.20
2019-03-31T18:14:42.303Z,22.10
2019-03-31T18:18:50.127Z,22.10
2019-03-31T18:22:57.234Z,22.00
2019-03-31T18:27:05.754Z,21.90
2019-03-31T18:31:13.294Z,21.90
2019-03-31T18:35:20.826Z,21.70
2019-03-31T18:39:26.987Z,21.70
2019-03-31T18:43:33.032Z,21.60
2019-03-31T18:47:38.884Z,21.50
2019-03-31T18:51:46.454Z,21.40
2019-03-31T18:56:11.645Z,21.30
2019-03-31T19:00:35.762Z,21.20
2019-03-31T19:04:54.108Z,21.10
2019-03-31T19:09:19.857Z,21.00
2019-03-31T19:14:02.901Z,20.90
2019-03-31T19:18:33.755Z,20.80
2019-03-31T19:22:51.583Z,20.70
2019-03-31T19:27:15.760Z,20.50
2019-03-31T19:31:38.350Z,20.40
2019-03-31T19:36:17.259Z,20.40
2019-03-31T19:40:46.011Z,20.30
2019-03-31T19:45:00.826Z,20.10
2019-03-31T19:49:32.508Z,20.00
2019-03-31T19:54:01.601Z,19.90
2019-03-31T19:58:37.980Z,19.90
2019-03-31T20:03:13.732Z,19.80
2019-03-31T20:07:29.992Z,19.60
2019-03-31T20:12:01.872Z,19.50
2019-03-31T20:16:32.957Z,19.40
2019-03-31T20:21:00.739Z,19.30
2019-03-31T20:25:32.624Z,19.20
2019-03-31T20:29:45.321Z,19.10
2019-03-31T20:34:09.940Z,19.00
2019-03-31T20:38:43.793Z,18.90
2019-03-31T20:43:11.474Z,18.90
2019-03-31T20:47:17.479Z,18.70
2019-03-31T20:51:24.627Z,18.60
2019-03-31T20:55:30.338Z,18.50
2019-03-31T20:59:36.455Z,18.50
2019-03-31T21:03:44.038Z,18.40
2019-03-31T21:07:49.849Z,18.30
2019-03-31T21:11:57.391Z,18.20
2019-03-31T21:16:05.556Z,18.10
2019-03-31T21:20:14.097Z,18.00
2019-03-31T21:24:21.960Z,17.90
2019-03-31T21:28:31.422Z,17.80
2019-03-31T21:32:38.139Z,17.70
2019-03-31T21:36:44.164Z,17.60
2019-03-31T21:40:49.837Z,17.60
2019-03-31T21:44:56.265Z,17.50
2019-03-31T21:49:03.097Z,17.40
2019-03-31T21:53:08.871Z,17.30
2019-03-31T21:57:14.557Z,17.30
2019-03-31T22:01:21.232Z,17.20
2019-03-31T22:05:28.780Z,17.10
2019-03-31T22:09:34.606Z,17.00
2019-03-31T22:13:40.741Z,16.90
2019-03-31T22:17:48.101Z,16.80
2019-03-31T22:21:53.815Z,16.80
2019-03-31T22:26:03.876Z,16.70
2019-03-31T22:30:09.778Z,16.60
2019-03-31T22:34:15.651Z,16.60
2019-03-31T22:38:21.348Z,16.50
2019-03-31T22:42:27.100Z,16.40
2019-03-31T22:46:33.553Z,16.40
2019-03-31T22:50:39.279Z,16.40
2019-03-31T22:54:45.036Z,16.20
2019-03-31T22:58:50.763Z,16.20
2019-03-31T23:02:56.747Z,16.10
2019-03-31T23:07:02.570Z,16.10
2019-03-31T23:11:08.307Z,16.00
2019-03-31T23:15:15.558Z,15.90
2019-03-31T23:19:23.475Z,15.90
2019-03-31T23:23:29.141Z,15.80
2019-03-31T23:27:36.979Z,15.70
2019-03-31T23:31:43.685Z,15.60
2019-03-31T23:35:49.703Z,15.60
2019-03-31T23:39:55.380Z,15.50
2019-03-31T23:44:01.227Z,15.50
2019-03-31T23:48:07.098Z,15.40
2019-03-31T23:52:13.300Z,15.30
2019-03-31T23:56:21.493Z,15.30
